• Join FlightAware (Why Join?)
  • Login
  • US Flag 
12:04AM EST


 

Airport Tracker/Info


-or-


 

Live Flight TrackerFlight Track Log ✈ N527MC ✈ 22-Apr-2013 ✈ KLUK - KDLZ

Flight Track Log - Related Links

Times and Time Zones

All times are in EDT time to prevent confusion due to time zone crossing. See the N527MC flight status page for this flight to view local times or setup timezone preferences in your user account.

Time Position Orientation Groundspeed Altitude Reporting Facility
EDT Latitude Longitude Course Direction KTS MPH feet Rate Location/Type
06:32PM 39.2667 -84.2333 38° Northeast 135 155 5,200  Level Cincinnati TRACON
06:33PM 39.2833 -84.2167 38° Northeast 138 159 5,400 180 Climbing Cincinnati TRACON
06:34PM 39.2994 -84.2033 33° Northeast 131 151 5,500 60 Climbing Indianapolis Center
06:34PM 39.3119 -84.1883 43° Northeast 141 162 5,500 -120 Level Indianapolis Center
06:35PM 39.3292 -84.1692 41° Northeast 138 159 5,400  Descending Indianapolis Center
06:35PM 39.3461 -84.1525 37° Northeast 147 169 5,500 60 Climbing Indianapolis Center
06:36PM 39.3633 -84.1342 39° Northeast 147 169 5,500  Level Indianapolis Center
06:36PM 39.3739 -84.1208 44° Northeast 157 181 5,500 -120 Level Indianapolis Center
06:37PM 39.4014 -84.0911 40° Northeast 153 176 5,400  Descending Indianapolis Center
06:37PM 39.4150 -84.0778 37° Northeast 156 180 5,500 60 Climbing Indianapolis Center
06:38PM 39.4328 -84.0556 44° Northeast 151 174 5,500  Level Indianapolis Center
06:39PM 39.4672 -84.0194 39° Northeast 155 178 5,500  Level Indianapolis Center
06:40PM 39.4981 -83.9831 42° Northeast 152 175 5,500  Level Indianapolis Center
06:41PM 39.5344 -83.9461 38° Northeast 157 181 5,500  Level Indianapolis Center
06:41PM 39.5500 -83.9300 39° Northeast 158 182 5,500  Level Indianapolis Center
06:42PM 39.5683 -83.9078 43° Northeast 160 184 5,500 -60 Level Indianapolis Center
06:43PM 39.6094 -83.8647 39° Northeast 154 177 5,400  Descending Indianapolis Center
06:44PM 39.6400 -83.8289 42° Northeast 155 178 5,500 60 Climbing Indianapolis Center
06:44PM 39.6508 -83.8183 37° Northeast 156 180 5,500  Level Indianapolis Center
06:45PM 39.6736 -83.7925 41° Northeast 155 178 5,500 -120 Level Indianapolis Center
06:45PM 39.6825 -83.7844 35° Northeast 153 176 5,400  Descending Indianapolis Center
06:46PM 39.7064 -83.7564 42° Northeast 154 177 5,500  Climbing Indianapolis Center
06:47PM 39.7397 -83.7197 40° Northeast 154 177 5,500  Level Indianapolis Center
06:48PM 39.7722 -83.6831 41° Northeast 155 178 5,500  Level Indianapolis Center
06:49PM 39.8056 -83.6456 41° Northeast 155 178 5,500  Level Indianapolis Center
06:50PM 39.8447 -83.6039 39° Northeast 153 176 5,500  Level Indianapolis Center
06:51PM 39.8725 -83.5717 42° Northeast 155 178 5,500  Level Indianapolis Center
06:52PM 39.9058 -83.5339 41° Northeast 155 178 5,500  Level Indianapolis Center
06:53PM 39.9389 -83.4967 41° Northeast 154 177 5,500  Level Indianapolis Center
06:54PM 39.9792 -83.4544 39° Northeast 158 182 5,500 -120 Level Indianapolis Center
06:55PM 40.0092 -83.4172 44° Northeast 153 176 5,300 -360 Descending Indianapolis Center
06:56PM 40.0467 -83.3772 39° Northeast 159 183 4,800 -540 Descending Indianapolis Center
06:58PM 40.0817 -83.3375 41° Northeast 163 188 4,200 -600 Descending Indianapolis Center
06:58PM 40.1136 -83.3019 40° Northeast 166 191 3,700 -480 Descending Indianapolis Center
07:00PM 40.1500 -83.2600 41° Northeast 165 190 3,300 -360 Descending Indianapolis Center
07:02PM 40.2128 -83.1805 44° Northeast  Level FlightAware Approximate
07:09PM 40.2667 -83.1000 57° Northeast  Level FlightAware Approximate
07:10PM 40.2797 -83.1148 57° Northeast  Level Estimated